• Join FlightAware (Why Join?)
  • Login
  • US Flag 
03:08AM EDT


 

Airport Tracker/Info


-or-


 

Live Flight TrackerFlight Track Log ✈ GLA61C ✈ 19-Jun-2013 ✈ KCEZ - KDEN

Flight Track Log - Related Links

Times and Time Zones

All times are in EDT time to prevent confusion due to time zone crossing. See the GLA61C flight status page for this flight to view local times or setup timezone preferences in your user account.

Time Position Orientation Groundspeed Altitude Reporting Facility
EDT Latitude Longitude Course Direction KTS MPH feet Rate Location/Type
08:01AM 37.3717 -108.5722 48° Northeast 186 214 8,500  Level Denver Center
08:02AM 37.4125 -108.5417 31° Northeast 181 208 10,000 1,440 Climbing Denver Center
08:03AM 37.4431 -108.4872 55° Northeast 186 214 11,400 1,380 Climbing Denver Center
08:04AM 37.5936 -108.2192 48° Northeast  Level FlightAware Approximate
08:04AM 37.4872 -108.4292 46° Northeast 198 228 12,800  Level Denver Center
08:05AM 37.6421 -108.1522 48° Northeast  Level FlightAware Approximate
08:05AM 37.5231 -108.3750 50° Northeast 204 235 13,900  Level Denver Center
08:06AM 37.6906 -108.0851 48° Northeast  Level FlightAware Approximate
08:06AM 37.5633 -108.3219 46° Northeast 212 244 15,100  Level Denver Center
08:07AM 37.7391 -108.0180 48° Northeast  Level FlightAware Approximate
08:07AM 37.6108 -108.2586 47° Northeast 218 251 16,400  Level Denver Center
08:08AM 37.6500 -108.2031 48° Northeast 220 253 17,600 1,020 Climbing Denver Center
08:09AM 37.6886 -108.1456 50° Northeast 222 255 18,500 1,020 Climbing Denver Center
08:11AM 37.7356 -108.0747 50° Northeast 228 262 19,700 1,020 Climbing Denver Center
08:12AM 37.7769 -108.0128 50° Northeast 235 270 20,600 900 Climbing Denver Center
08:13AM 37.8178 -107.9492 51° Northeast 240 276 21,600 780 Climbing Denver Center
08:14AM 37.8583 -107.8817 53° Northeast 245 282 22,200 840 Climbing Denver Center
08:15AM 37.9011 -107.8003 56° Northeast 246 283 23,300 840 Climbing Denver Center
08:16AM 37.9422 -107.7319 53° Northeast 251 289 23,900 540 Climbing Denver Center
08:17AM 37.9889 -107.6681 47° Northeast 259 298 24,500 540 Climbing Denver Center
08:18AM 38.0411 -107.5886 50° Northeast 263 303 25,000 240 Climbing Denver Center
08:19AM 38.0919 -107.5194 47° Northeast 277 319 25,100  Climbing Denver Center
08:20AM 38.1478 -107.4519 44° Northeast 288 331 25,000 -60 Descending Denver Center
08:21AM 38.2144 -107.3758 42° Northeast 289 333 25,000  Level Denver Center
08:22AM 38.2683 -107.3017 47° Northeast 296 341 25,000  Level Denver Center
08:23AM 38.3358 -107.1989 50° Northeast 296 341 25,000  Level Denver Center
08:24AM 38.3900 -107.1261 46° Northeast 300 345 25,000  Level Denver Center
08:25AM 38.4481 -107.0533 44° Northeast 295 339 25,000  Level Denver Center
08:26AM 38.4900 -106.9625 59° Northeast 299 344 25,000  Level Denver Center
08:27AM 38.5178 -106.8625 70° East 299 344 25,000  Level Denver Center
08:28AM 38.5456 -106.7600 71° East 304 350 25,000  Level Denver Center
08:29AM 38.5792 -106.6619 66° East 302 348 25,000  Level Denver Center
08:30AM 38.6114 -106.5614 68° East 305 351 25,000  Level Denver Center
08:31AM 38.6456 -106.4619 66° East 306 352 25,000  Level Denver Center
08:32AM 38.6783 -106.3619 67° East 305 351 25,000  Level Denver Center
08:33AM 38.7108 -106.2631 67° East 301 346 25,000  Level Denver Center
08:34AM 38.7494 -106.1536 66° East 299 344 25,000  Level Denver Center
08:35AM 38.7922 -106.0694 57° Northeast 294 338 25,000  Level Denver Center
08:36AM 38.8436 -105.9714 56° Northeast 296 341 25,000  Level Denver Center
08:37AM 38.8881 -105.8967 53° Northeast 296 341 25,000 -540 Level Denver Center
08:38AM 38.9461 -105.7933 54° Northeast 300 345 24,000 -900 Descending Denver Center
08:39AM 38.9961 -105.7108 52° Northeast 305 351 23,200 -1,080 Descending Denver Center
08:40AM 39.0469 -105.6292 51° Northeast 306 352 21,900 -1,380 Descending Denver Center
08:41AM 39.1072 -105.5319 51° Northeast 310 357 20,400 -1,680 Descending Denver Center
08:42AM 39.1606 -105.4469 51° Northeast 308 354 18,500 -1,860 Descending Denver Center
08:43AM 39.2167 -105.3656 48° Northeast 304 350 16,700 -1,260 Descending Denver Center
08:44AM 39.2686 -105.2811 52° Northeast 299 344 16,000 -600 Descending Denver Center
08:45AM 39.3225 -105.1986 50° Northeast 301 346 15,500 -720 Descending Denver Center
08:46AM 39.3906 -105.1156 43° Northeast 313 360 14,600 -780 Descending Denver Center
08:47AM 39.4447 -105.0675 34° Northeast 303 349 14,000 -780 Descending Denver Center
08:48AM 39.5239 -104.9828 40° Northeast 300 345 13,100 -540 Descending Denver Center
08:49AM 39.5806 -104.9097 45° Northeast 287 330 13,000 -60 Descending Denver Center
08:50AM 39.6469 -104.8617 29° Northeast 270 311 13,000 -120 Level Denver Center
08:51AM 39.7278 -104.8622 360° North 269 310 12,800 -480 Descending Denver Center
08:52AM 39.8056 -104.8544 North 278 320 12,100 -720 Descending Denver Center
08:53AM 39.8861 -104.8433 North 287 330 11,400 -780 Descending Denver Center
08:54AM 39.9644 -104.8350 North 281 323 10,600 -1,560 Descending Denver Center
08:55AM 40.0400 -104.8269 North 273 314 8,300 -1,680 Descending Denver Center
08:56AM 40.0519 -104.7506 78° East 244 281 7,200 -660 Descending Denver Center
08:57AM 40.0072 -104.7164 150° Southeast 169 194 7,000 -240 Descending Denver Center
08:58AM 39.9678 -104.6964 159° South 151 174 6,800 -480 Descending Denver Center
08:59AM 39.9261 -104.6953 179° South 149 171 6,100 -720 Descending Denver Center
09:00AM 39.8911 -104.6961 181° South 126 145 5,400 -720 Descending Denver Center
09:02AM 39.8617 -104.6732 151° Southeast  Level Estimated